Florence, Mississippi
Current Conditions -  °F | °C
As of 2:54 PM on Thursday 18 Dec 2014 (Local Time) from KJAN Reporting Station
Broken Clouds Broken Clouds  
Wind Chill: 10°   Ceiling: 12000
Heat Index: 10°   Visibility: 10mi
Dew Point:   Wind: 5mph
Humidity: 83%   Direction: 100°E
Pressure: 30.15"   Gusts: NA
Location:  32.15°N, 90.13°W
Report Text: KJAN 182054Z 10004KT 10SM FEW030 BKN120 10/07 A3015 RMK AO2 SLP209 60000 T01000072 56013
Loading
Personal Weather Stations






























Interactive Weather Map New forecast layout! Learn more

10-Day Weather Forecast

Advertisements
Track Severe Weather on mobile